createdAt,value
2023-07-16T00:05:42.484Z,96777.17
2023-07-16T00:15:45.597Z,96775.63
2023-07-16T00:25:53.020Z,96765.63
2023-07-16T00:35:56.311Z,96771.11
2023-07-16T00:45:59.890Z,96760.87
2023-07-16T00:56:06.509Z,96753.27
2023-07-16T01:07:13.645Z,96746.17
2023-07-16T01:18:19.634Z,96740.61
2023-07-16T01:29:29.754Z,96730.03
2023-07-16T01:40:25.210Z,96723.22
2023-07-16T01:51:22.164Z,96715.83
2023-07-16T02:02:46.892Z,96704.83
2023-07-16T02:14:11.695Z,96700.14
2023-07-16T02:25:06.332Z,96694.98
2023-07-16T02:36:21.076Z,96702.73
2023-07-16T02:47:22.052Z,96701.93
2023-07-16T02:58:29.357Z,96707.15
2023-07-16T03:09:44.757Z,96705.29
2023-07-16T03:21:11.205Z,96698.65
2023-07-16T03:32:51.429Z,96714.05
2023-07-16T03:44:16.977Z,96713.21
2023-07-16T03:55:40.993Z,96710.36
2023-07-16T04:07:05.874Z,96710.23
2023-07-16T04:17:55.352Z,96715.43
2023-07-16T04:28:55.695Z,96713.11
2023-07-16T04:40:00.790Z,96710.48
2023-07-16T04:50:58.032Z,96721.27
2023-07-16T05:02:22.596Z,96736.81
2023-07-16T05:13:30.033Z,96748.65
2023-07-16T05:24:44.633Z,96757.81
2023-07-16T05:35:38.667Z,96760.86
2023-07-16T05:46:12.920Z,96757.72
2023-07-16T05:56:57.420Z,96761.11
2023-07-16T06:08:12.087Z,96763.72
2023-07-16T06:18:47.243Z,96759.50
2023-07-16T06:29:51.296Z,96762.71
2023-07-16T06:40:32.502Z,96756.46
2023-07-16T06:51:16.436Z,96764.60
2023-07-16T07:01:42.690Z,96776.52
2023-07-16T07:12:17.587Z,96774.63
2023-07-16T07:22:43.514Z,96778.16
2023-07-16T07:33:31.744Z,96773.80
2023-07-16T07:44:11.847Z,96763.91
2023-07-16T07:54:43.285Z,96768.63
2023-07-16T08:04:50.677Z,96780.82
2023-07-16T08:15:21.473Z,96791.41
2023-07-16T08:25:28.243Z,96802.52
2023-07-16T08:35:36.262Z,96819.34
2023-07-16T08:46:03.503Z,96824.48
2023-07-16T08:56:07.892Z,96827.36
2023-07-16T09:06:19.314Z,96825.14
2023-07-16T09:16:28.561Z,96821.88
2023-07-16T09:26:49.165Z,96823.52
2023-07-16T09:37:21.881Z,96821.89
2023-07-16T09:47:32.395Z,96825.33
2023-07-16T09:57:54.342Z,96830.58
2023-07-16T10:08:03.726Z,96835.93
2023-07-16T10:18:29.298Z,96838.76
2023-07-16T10:28:49.139Z,96834.50
2023-07-16T10:38:59.525Z,96834.80
2023-07-16T10:49:16.330Z,96833.23
2023-07-16T10:59:45.736Z,96827.97
2023-07-16T11:10:07.282Z,96824.21
2023-07-16T11:20:34.485Z,96824.70
2023-07-16T11:30:47.327Z,96823.25
2023-07-16T11:40:54.584Z,96820.84
2023-07-16T11:50:58.216Z,96819.29
2023-07-16T12:01:28.362Z,96813.15
2023-07-16T12:11:35.903Z,96810.89
2023-07-16T12:21:54.742Z,96802.04
2023-07-16T12:32:01.384Z,96799.95
2023-07-16T12:42:15.294Z,96788.23
2023-07-16T12:52:34.998Z,96792.72
2023-07-16T13:02:55.724Z,96791.36
2023-07-16T13:13:21.624Z,96786.92
2023-07-16T13:23:25.136Z,96789.39
2023-07-16T13:33:34.679Z,96799.23
2023-07-16T13:43:45.773Z,96799.36
2023-07-16T13:53:52.401Z,96792.08
2023-07-16T14:04:15.314Z,96797.02
2023-07-16T14:14:44.814Z,96792.58
2023-07-16T14:24:52.213Z,96789.30
2023-07-16T14:34:57.008Z,96788.00
2023-07-16T14:45:23.572Z,96777.66
2023-07-16T14:55:32.793Z,96766.60
2023-07-16T15:05:44.429Z,96755.66
2023-07-16T15:16:05.573Z,96738.77
2023-07-16T15:26:52.745Z,96728.94
2023-07-16T15:37:10.212Z,96721.52
2023-07-16T15:47:25.857Z,96716.89
2023-07-16T15:57:35.269Z,96724.58
2023-07-16T16:08:05.550Z,96727.80
2023-07-16T16:18:10.765Z,96734.39
2023-07-16T16:28:15.547Z,96739.72
2023-07-16T16:38:28.381Z,96749.60
2023-07-16T16:48:52.357Z,96744.30
2023-07-16T16:58:59.745Z,96761.84
2023-07-16T17:09:07.045Z,96760.73
2023-07-16T17:19:34.792Z,96756.66
2023-07-16T17:29:43.450Z,96754.79
2023-07-16T17:40:01.611Z,96767.72
2023-07-16T17:50:16.584Z,96788.38
2023-07-16T18:00:44.207Z,96807.13
2023-07-16T18:11:09.494Z,96798.20
2023-07-16T18:21:24.674Z,96820.04
2023-07-16T18:31:36.507Z,96821.02
2023-07-16T18:42:20.481Z,96841.67
2023-07-16T18:52:39.807Z,96857.61
2023-07-16T19:03:20.627Z,96872.09
2023-07-16T19:13:43.201Z,96877.45
2023-07-16T19:24:18.991Z,96883.17
2023-07-16T19:34:45.438Z,96888.40
2023-07-16T19:45:00.225Z,96892.75
2023-07-16T19:55:24.829Z,96899.52
2023-07-16T20:06:01.278Z,96909.25
2023-07-16T20:16:32.087Z,96904.04
2023-07-16T20:26:53.919Z,96912.32
2023-07-16T20:37:22.966Z,96913.61
2023-07-16T20:48:03.923Z,96930.46
2023-07-16T20:58:37.032Z,96949.14
2023-07-16T21:09:12.167Z,96953.07
2023-07-16T21:20:12.540Z,96947.77
2023-07-16T21:30:54.965Z,96950.79
2023-07-16T21:41:21.522Z,96951.52
2023-07-16T21:51:41.585Z,96949.80
2023-07-16T22:02:32.292Z,96948.77
2023-07-16T22:13:29.423Z,96955.05
2023-07-16T22:24:18.038Z,96953.55
2023-07-16T22:35:01.512Z,96954.79
2023-07-16T22:45:33.805Z,96966.37
2023-07-16T22:56:33.834Z,96974.57
2023-07-16T23:07:42.355Z,96977.02
2023-07-16T23:18:47.529Z,96973.58
2023-07-16T23:29:44.419Z,96977.34
2023-07-16T23:40:08.005Z,96972.08
2023-07-16T23:50:53.579Z,96958.88
